Time;durP1;ratioP1;P1;durP2;ratioP2;P2;SDS_P1;SDS_P2;PMS_P1;PMS_P2;Temp;Humidity;BMP_temperature;BMP_pressure;BME280_temperature;BME280_humidity;BME280_pressure;Samples;Min_cycle;Max_cycle;Signal;HPM_P1;HPM_P2
2021/03/18 00:01:38;;;;;;;30.10;16.35;;;179.60;1945.60;;;;;;5052986;28;20435;-70
2021/03/18 00:04:05;;;;;;;26.05;17.45;;;179.50;1945.60;;;;;;5053702;28;20100;-71
2021/03/18 00:06:32;;;;;;;26.80;15.75;;;179.50;1945.60;;;;;;5055214;28;20028;-75
2021/03/18 00:08:58;;;;;;;25.50;16.52;;;179.50;1971.20;;;;;;5055322;28;20021;-74
2021/03/18 00:11:24;;;;;;;26.65;16.85;;;179.50;1971.20;;;;;;5052512;28;20108;-70
2021/03/18 00:13:50;;;;;;;25.70;16.65;;;179.50;1971.20;;;;;;5053331;28;20029;-70
2021/03/18 00:16:16;;;;;;;22.15;15.40;;;179.40;1971.20;;;;;;5053554;28;20031;-72
2021/03/18 00:18:54;;;;;;;26.10;16.02;;;179.40;1971.20;;;;;;5053401;28;20029;-70
2021/03/18 00:21:23;;;;;;;24.25;17.08;;;179.40;1971.20;;;;;;5053585;28;20428;-70
2021/03/18 00:23:50;;;;;;;26.35;17.05;;;179.40;1971.20;;;;;;5052144;28;20048;-74
2021/03/18 00:26:23;;;;;;;26.33;16.05;;;179.40;1971.20;;;;;;5054238;28;20029;-74
2021/03/18 00:28:49;;;;;;;24.88;15.15;;;179.40;1996.80;;;;;;5055119;28;20025;-74
2021/03/18 00:31:15;;;;;;;21.60;14.77;;;179.40;1971.20;;;;;;5053767;28;20035;-70
2021/03/18 00:33:41;;;;;;;26.45;16.08;;;179.40;1996.80;;;;;;5054871;28;20049;-71
2021/03/18 00:36:07;;;;;;;22.85;14.65;;;179.40;1971.20;;;;;;5054857;28;20378;-70
2021/03/18 00:38:33;;;;;;;21.95;13.27;;;179.40;1971.20;;;;;;5054852;28;20041;-70
2021/03/18 00:41:04;;;;;;;23.88;14.88;;;179.40;1971.20;;;;;;5054759;28;20055;-74
2021/03/18 00:43:30;;;;;;;24.90;15.98;;;179.40;1971.20;;;;;;5054692;28;20401;-70
2021/03/18 00:45:56;;;;;;;25.55;16.02;;;179.40;1971.20;;;;;;5054658;28;20025;-71
2021/03/18 00:48:23;;;;;;;22.00;15.35;;;179.40;1971.20;;;;;;5054534;28;20036;-70
2021/03/18 00:50:51;;;;;;;20.17;13.48;;;179.40;1971.20;;;;;;5054577;28;20125;-70
2021/03/18 00:53:22;;;;;;;21.92;14.38;;;179.40;1971.20;;;;;;5053519;28;20029;-70
2021/03/18 00:55:50;;;;;;;21.35;14.15;;;179.40;1945.60;;;;;;5055113;28;20474;-69
2021/03/18 00:58:17;;;;;;;21.55;13.27;;;179.40;1945.60;;;;;;5054578;28;20132;-70
2021/03/18 01:00:49;;;;;;;21.27;12.82;;;179.40;1945.60;;;;;;5054387;28;20025;-71
2021/03/18 01:03:15;;;;;;;21.52;12.70;;;179.40;1945.60;;;;;;5054608;28;20086;-70
2021/03/18 01:05:53;;;;;;;16.92;11.68;;;179.40;1920.00;;;;;;5054362;28;20057;-71
2021/03/18 01:08:24;;;;;;;18.13;12.75;;;179.40;1920.00;;;;;;5054253;28;20079;-70
2021/03/18 01:10:54;;;;;;;15.68;10.27;;;179.40;1894.40;;;;;;5054208;28;20523;-70
2021/03/18 01:13:21;;;;;;;18.48;11.65;;;179.40;1894.40;;;;;;5052896;28;20503;-70
2021/03/18 01:15:53;;;;;;;18.63;12.55;;;179.40;1894.40;;;;;;5054382;28;20393;-71
2021/03/18 01:18:26;;;;;;;20.83;13.02;;;179.40;1894.40;;;;;;5054004;28;20033;-70
2021/03/18 01:20:52;;;;;;;19.27;11.48;;;179.40;1894.40;;;;;;5053949;28;20035;-70
2021/03/18 01:23:18;;;;;;;18.05;12.07;;;179.30;1894.40;;;;;;5053963;28;20020;-70
2021/03/18 01:25:44;;;;;;;20.10;12.48;;;179.30;1894.40;;;;;;5053860;28;20107;-70
2021/03/18 01:28:10;;;;;;;20.20;12.10;;;179.40;1894.40;;;;;;5053817;28;20155;-70
2021/03/18 01:30:39;;;;;;;17.35;11.88;;;179.40;1894.40;;;;;;5054079;28;20025;-70
2021/03/18 01:33:06;;;;;;;18.73;12.15;;;179.30;1894.40;;;;;;5053948;28;20044;-70
2021/03/18 01:35:32;;;;;;;18.30;12.95;;;179.30;1868.80;;;;;;5053785;28;20029;-70
2021/03/18 01:37:58;;;;;;;17.05;11.02;;;179.30;1868.80;;;;;;5053618;28;20061;-70
2021/03/18 01:40:29;;;;;;;16.42;10.27;;;179.30;1868.80;;;;;;5054040;28;20103;-70
2021/03/18 01:42:56;;;;;;;16.75;10.60;;;179.30;1868.80;;;;;;5053727;28;20025;-70
2021/03/18 01:45:23;;;;;;;22.55;11.93;;;179.30;1868.80;;;;;;5053667;28;20032;-70
2021/03/18 01:47:51;;;;;;;18.40;11.20;;;179.20;1868.80;;;;;;5053837;28;20044;-70
2021/03/18 01:50:18;;;;;;;19.73;11.50;;;179.30;1868.80;;;;;;5053639;28;20049;-74
2021/03/18 01:52:44;;;;;;;15.57;11.45;;;179.30;1868.80;;;;;;5053810;28;20039;-70
2021/03/18 01:55:15;;;;;;;18.38;10.55;;;179.30;1868.80;;;;;;5053119;28;20032;-70
2021/03/18 01:57:41;;;;;;;15.68;9.60;;;179.20;1868.80;;;;;;5051982;28;20044;-71
2021/03/18 02:00:09;;;;;;;19.70;11.32;;;179.20;1868.80;;;;;;5053442;28;20428;-73
2021/03/18 02:02:35;;;;;;;15.93;10.75;;;179.20;1843.20;;;;;;5053475;28;20028;-70
2021/03/18 02:05:03;;;;;;;15.15;10.02;;;179.20;1843.20;;;;;;5054065;28;20033;-75
2021/03/18 02:07:29;;;;;;;13.90;10.32;;;179.20;1843.20;;;;;;5053506;28;20025;-70
2021/03/18 02:09:55;;;;;;;18.02;9.88;;;179.20;1843.20;;;;;;5053294;28;20481;-70
2021/03/18 02:12:21;;;;;;;13.18;9.75;;;179.20;1817.60;;;;;;5053392;28;20036;-70
2021/03/18 02:14:47;;;;;;;13.82;9.65;;;179.20;1817.60;;;;;;5053450;28;20025;-75
2021/03/18 02:17:23;;;;;;;15.75;9.38;;;179.20;1817.60;;;;;;5053236;28;20067;-70
2021/03/18 02:20:40;;;;;;;12.68;8.98;;;179.30;1843.20;;;;;;5053288;28;20064;-76
2021/03/18 02:24:02;;;;;;;12.98;9.20;;;179.30;1817.60;;;;;;5011983;28;20034;-70
2021/03/18 02:26:58;;;;;;;16.52;9.95;;;179.20;1817.60;;;;;;5011500;28;20034;-70
2021/03/18 02:29:26;;;;;;;15.30;10.27;;;179.20;1817.60;;;;;;5011554;28;20026;-70
2021/03/18 02:32:29;;;;;;;17.58;12.05;;;179.20;1843.20;;;;;;5011638;28;20053;-71
2021/03/18 02:34:57;;;;;;;17.40;10.77;;;179.20;1817.60;;;;;;5011258;28;20054;-75
2021/03/18 02:37:26;;;;;;;16.15;9.65;;;154.50;1817.60;;;;;;5011334;28;20153;-70
2021/03/18 02:40:05;;;;;;;13.65;9.50;;;154.50;1843.20;;;;;;5011967;28;20041;-70
2021/03/18 02:42:36;;;;;;;11.98;8.48;;;154.50;1817.60;;;;;;5011335;28;20034;-70
2021/03/18 02:45:05;;;;;;;12.68;9.40;;;154.40;1817.60;;;;;;5011704;28;20041;-71
2021/03/18 02:47:34;;;;;;;14.15;9.30;;;154.40;1817.60;;;;;;5011278;28;20037;-70
2021/03/18 02:50:01;;;;;;;11.60;8.93;;;154.50;1817.60;;;;;;5011231;28;20125;-70
2021/03/18 02:52:29;;;;;;;13.68;8.88;;;154.50;1817.60;;;;;;4995068;28;20125;-73
2021/03/18 02:54:59;;;;;;;12.68;9.32;;;154.40;1817.60;;;;;;4994962;28;20573;-75
2021/03/18 02:57:29;;;;;;;13.40;9.63;;;154.50;1817.60;;;;;;5015554;28;20037;-70
2021/03/18 02:59:57;;;;;;;10.52;8.45;;;154.40;1792.00;;;;;;5052952;28;20025;-74
2021/03/18 03:02:27;;;;;;;13.23;9.25;;;154.40;1792.00;;;;;;5052997;28;20052;-71
2021/03/18 03:04:56;;;;;;;15.32;9.40;;;154.40;1792.00;;;;;;5052877;28;20374;-70
2021/03/18 03:07:28;;;;;;;13.90;9.88;;;154.30;1817.60;;;;;;5054208;28;20099;-70
2021/03/18 03:09:57;;;;;;;17.75;10.13;;;154.40;1817.60;;;;;;5057918;28;20488;-70
2021/03/18 03:12:26;;;;;;;26.33;10.63;;;154.30;1817.60;;;;;;5056429;28;20021;-70
2021/03/18 03:14:54;;;;;;;15.98;11.07;;;154.30;1817.60;;;;;;5056588;28;20037;-71
2021/03/18 03:17:23;;;;;;;16.58;10.50;;;154.30;1817.60;;;;;;5056382;28;20075;-70
2021/03/18 03:19:50;;;;;;;15.00;9.98;;;154.30;1817.60;;;;;;5056356;28;20120;-70
2021/03/18 03:22:16;;;;;;;17.60;10.18;;;154.30;1843.20;;;;;;5055120;28;20031;-70
2021/03/18 03:24:45;;;;;;;13.02;9.27;;;154.40;1817.60;;;;;;5055032;28;20381;-75
2021/03/18 03:27:11;;;;;;;15.57;9.82;;;154.30;1817.60;;;;;;5056212;28;20539;-70
2021/03/18 03:29:43;;;;;;;14.57;9.23;;;154.30;1843.20;;;;;;5056437;28;20025;-74
2021/03/18 03:32:11;;;;;;;13.13;8.88;;;154.40;1817.60;;;;;;5056176;28;20025;-74
2021/03/18 03:34:38;;;;;;;15.30;10.10;;;154.40;1843.20;;;;;;5055938;28;20048;-72
2021/03/18 03:37:05;;;;;;;14.27;9.55;;;154.40;1843.20;;;;;;5056553;28;20029;-70
2021/03/18 03:39:32;;;;;;;15.48;9.85;;;154.40;1843.20;;;;;;5055996;28;20036;-70
2021/03/18 03:41:58;;;;;;;16.92;10.18;;;154.40;1817.60;;;;;;5055915;28;20548;-74
2021/03/18 03:44:24;;;;;;;14.50;9.23;;;154.40;1817.60;;;;;;5056204;28;20414;-70
2021/03/18 03:46:50;;;;;;;14.70;10.90;;;154.40;1843.20;;;;;;5055813;28;20052;-74
2021/03/18 03:49:16;;;;;;;18.13;12.27;;;154.50;1843.20;;;;;;5055844;28;20470;-70
2021/03/18 03:51:57;;;;;;;20.13;11.32;;;154.40;1817.60;;;;;;5055613;28;20036;-71
2021/03/18 03:54:23;;;;;;;17.33;11.20;;;154.40;1843.20;;;;;;5055701;28;20401;-70
2021/03/18 03:57:02;;;;;;;16.90;11.18;;;154.40;1843.20;;;;;;5055518;28;20090;-70
2021/03/18 03:59:32;;;;;;;16.52;11.13;;;154.50;1817.60;;;;;;5055611;28;20426;-70
2021/03/18 04:01:59;;;;;;;15.70;10.65;;;154.40;1817.60;;;;;;5055853;28;20017;-71
2021/03/18 04:04:41;;;;;;;16.73;10.73;;;154.40;1817.60;;;;;;5055429;28;20037;-70
2021/03/18 04:07:18;;;;;;;19.65;12.02;;;154.40;1843.20;;;;;;5055468;28;20064;-70
2021/03/18 04:09:45;;;;;;;17.73;11.15;;;154.40;1843.20;;;;;;5055333;28;20079;-71
2021/03/18 04:12:15;;;;;;;16.98;10.85;;;154.40;1843.20;;;;;;5055358;28;20029;-70
2021/03/18 04:14:47;;;;;;;15.38;10.43;;;154.40;1843.20;;;;;;5055534;28;20021;-70
2021/03/18 04:17:15;;;;;;;14.45;10.25;;;154.30;1843.20;;;;;;5055199;28;20031;-70
2021/03/18 04:19:49;;;;;;;16.08;9.80;;;154.30;1843.20;;;;;;5054803;28;20033;-70
2021/03/18 04:22:18;;;;;;;18.63;10.80;;;154.20;1817.60;;;;;;5055170;28;20024;-70
2021/03/18 04:24:48;;;;;;;19.58;13.70;;;154.30;1843.20;;;;;;5055055;28;20359;-74
2021/03/18 04:27:16;;;;;;;18.27;12.32;;;154.30;1817.60;;;;;;5055433;28;20040;-73
2021/03/18 04:29:44;;;;;;;19.17;12.88;;;154.30;1817.60;;;;;;5054960;28;20053;-70
2021/03/18 04:32:12;;;;;;;16.23;12.13;;;154.30;1792.00;;;;;;5054925;28;20021;-70
2021/03/18 04:34:39;;;;;;;17.85;11.10;;;154.30;1817.60;;;;;;5054687;28;20045;-70
2021/03/18 04:37:07;;;;;;;18.20;11.57;;;154.30;1817.60;;;;;;5054756;28;20037;-70
2021/03/18 04:39:35;;;;;;;18.13;10.82;;;154.30;1817.60;;;;;;5055636;28;20518;-70
2021/03/18 04:42:03;;;;;;;30.73;14.75;;;154.30;1843.20;;;;;;5054747;28;20090;-70
2021/03/18 04:44:30;;;;;;;17.70;11.95;;;154.30;1843.20;;;;;;5055057;28;20036;-74
2021/03/18 04:46:58;;;;;;;16.13;11.60;;;154.30;1868.80;;;;;;5054785;28;20044;-70
2021/03/18 04:49:25;;;;;;;19.92;12.88;;;154.30;1868.80;;;;;;5054634;28;20025;-71
2021/03/18 04:51:51;;;;;;;20.38;13.40;;;154.20;1894.40;;;;;;5053319;28;20044;-70
2021/03/18 04:54:17;;;;;;;23.60;14.90;;;154.20;1920.00;;;;;;5054545;28;20132;-70
2021/03/18 04:56:45;;;;;;;25.02;15.30;;;154.20;1920.00;;;;;;5053146;28;20107;-70
2021/03/18 04:59:16;;;;;;;25.63;16.02;;;154.10;1945.60;;;;;;5054400;28;20035;-70
2021/03/18 05:01:50;;;;;;;23.45;14.98;;;154.10;1945.60;;;;;;5054415;28;20052;-71
2021/03/18 05:04:21;;;;;;;24.52;15.90;;;154.10;1971.20;;;;;;5053118;28;20083;-70
2021/03/18 05:06:49;;;;;;;27.80;16.38;;;154.10;1971.20;;;;;;5053128;28;20017;-74
2021/03/18 05:09:16;;;;;;;30.23;18.88;;;154.10;1971.20;;;;;;5054232;28;20029;-70
2021/03/18 05:11:43;;;;;;;28.80;18.67;;;154.10;1996.80;;;;;;5054258;28;20063;-70
2021/03/18 05:14:10;;;;;;;28.05;19.00;;;154.10;1971.20;;;;;;5054123;28;20412;-70
2021/03/18 05:16:37;;;;;;;45.10;26.25;;;154.10;1971.20;;;;;;5052734;28;20033;-70
2021/03/18 05:19:07;;;;;;;30.85;18.83;;;154.00;1996.80;;;;;;5054107;28;20025;-70
2021/03/18 05:21:33;;;;;;;43.75;24.73;;;154.00;1996.80;;;;;;5053983;28;20017;-70
2021/03/18 05:24:00;;;;;;;38.80;22.33;;;154.00;1996.80;;;;;;5054328;28;20017;-70
2021/03/18 05:26:26;;;;;;;62.80;33.08;;;154.00;1996.80;;;;;;5053990;28;20047;-75
2021/03/18 05:28:52;;;;;;;51.30;29.10;;;154.00;1996.80;;;;;;5054046;28;20500;-71
2021/03/18 05:31:23;;;;;;;37.28;24.90;;;154.00;1971.20;;;;;;5053047;28;20029;-70
2021/03/18 05:33:51;;;;;;;45.78;27.85;;;154.00;1971.20;;;;;;5053609;28;20041;-74
2021/03/18 05:36:18;;;;;;;34.40;21.60;;;154.00;1996.80;;;;;;5053768;28;20107;-70
2021/03/18 05:38:43;;;;;;;28.58;18.00;;;154.00;1971.20;;;;;;5053630;28;20501;-70
2021/03/18 05:41:09;;;;;;;29.30;18.50;;;154.00;1996.80;;;;;;5053814;28;20025;-70
2021/03/18 05:43:36;;;;;;;35.50;20.63;;;154.00;1996.80;;;;;;5053667;28;20429;-70
2021/03/18 05:46:02;;;;;;;27.20;16.55;;;153.90;1996.80;;;;;;5052585;28;20393;-75
2021/03/18 05:48:29;;;;;;;32.10;18.70;;;154.00;1971.20;;;;;;5053859;28;20025;-70
2021/03/18 05:50:57;;;;;;;38.60;19.52;;;154.00;1996.80;;;;;;5053599;28;20351;-70
2021/03/18 05:53:24;;;;;;;34.85;20.45;;;154.00;1971.20;;;;;;5053477;28;20017;-70
2021/03/18 05:55:52;;;;;;;31.40;17.95;;;153.90;1996.80;;;;;;5053559;28;20049;-70
2021/03/18 05:58:23;;;;;;;29.52;18.58;;;153.90;1996.80;;;;;;5052163;28;20040;-70
2021/03/18 06:00:50;;;;;;;30.40;18.85;;;153.90;1996.80;;;;;;5053407;28;20071;-72
2021/03/18 06:03:18;;;;;;;47.35;23.02;;;153.90;1996.80;;;;;;5053419;28;20027;-70
2021/03/18 06:05:45;;;;;;;44.92;23.05;;;154.00;1996.80;;;;;;5052644;28;20501;-71
2021/03/18 06:08:11;;;;;;;33.92;20.80;;;153.90;1971.20;;;;;;5053242;28;20025;-75
2021/03/18 06:10:38;;;;;;;36.53;20.40;;;153.90;1996.80;;;;;;5054529;28;20024;-71
2021/03/18 06:13:04;;;;;;;28.70;18.00;;;154.00;1971.20;;;;;;5052779;28;20036;-70
2021/03/18 06:15:30;;;;;;;30.92;18.42;;;153.90;1971.20;;;;;;5053158;28;20021;-70
2021/03/18 06:17:56;;;;;;;31.30;17.60;;;153.90;1996.80;;;;;;5051875;28;20502;-70
2021/03/18 06:20:25;;;;;;;28.35;17.85;;;154.00;1971.20;;;;;;5053696;28;20051;-75
2021/03/18 06:22:53;;;;;;;28.15;17.23;;;154.10;1971.20;;;;;;5054395;28;20473;-73
2021/03/18 06:25:29;;;;;;;22.92;15.25;;;154.10;1945.60;;;;;;5051755;28;20029;-74
2021/03/18 06:28:19;;;;;;;26.30;16.35;;;154.00;1945.60;;;;;;5052745;28;20056;-71
2021/03/18 06:31:00;;;;;;;32.70;18.58;;;154.00;1945.60;;;;;;5050170;28;20094;-75
2021/03/18 06:33:37;;;;;;;30.95;16.73;;;154.00;1945.60;;;;;;5051682;28;20048;-72
2021/03/18 06:36:18;;;;;;;28.55;17.33;;;154.00;1945.60;;;;;;5045032;28;20029;-73
2021/03/18 06:38:44;;;;;;;22.48;15.80;;;153.80;1971.20;;;;;;5052024;28;20036;-70
2021/03/18 06:41:10;;;;;;;25.60;16.27;;;153.70;1971.20;;;;;;5051812;28;20403;-70
2021/03/18 06:43:41;;;;;;;24.65;14.57;;;153.60;1996.80;;;;;;5055209;28;20108;-70
2021/03/18 06:46:19;;;;;;;23.38;15.13;;;153.60;1996.80;;;;;;5056357;28;20025;-73
2021/03/18 06:48:46;;;;;;;22.88;14.75;;;128.90;2022.40;;;;;;5056347;28;20377;-72
2021/03/18 06:51:28;;;;;;;24.83;16.33;;;153.60;2022.40;;;;;;5056302;28;20040;-70
2021/03/18 06:53:55;;;;;;;31.48;20.02;;;128.90;2022.40;;;;;;5056480;28;20029;-72
2021/03/18 06:56:33;;;;;;;33.92;20.25;;;128.80;2022.40;;;;;;5056693;28;20029;-72
2021/03/18 06:58:59;;;;;;;40.75;25.15;;;128.90;2022.40;;;;;;5056948;28;20044;-70
2021/03/18 07:01:28;;;;;;;66.35;35.30;;;128.90;2022.40;;;;;;5056567;28;20032;-72
2021/03/18 07:04:06;;;;;;;53.45;29.08;;;128.80;2048.00;;;;;;5056618;28;20132;-71
2021/03/18 07:06:34;;;;;;;49.78;27.35;;;128.80;2048.00;;;;;;5056515;28;20469;-71
2021/03/18 07:09:07;;;;;;;44.00;27.30;;;128.80;2073.60;;;;;;5056487;28;20029;-70
2021/03/18 07:11:38;;;;;;;30.05;17.33;;;128.80;2099.20;;;;;;5056752;28;20439;-70
2021/03/18 07:14:05;;;;;;;42.67;20.95;;;128.80;2099.20;;;;;;5056496;28;20036;-70
2021/03/18 07:16:41;;;;;;;35.25;19.85;;;128.60;2124.80;;;;;;5055133;28;20033;-70
2021/03/18 07:19:08;;;;;;;38.40;21.33;;;128.70;2150.40;;;;;;5056326;28;20151;-71
2021/03/18 07:21:41;;;;;;;28.23;17.63;;;128.60;2150.40;;;;;;5054983;28;20025;-73
2021/03/18 07:24:21;;;;;;;31.10;16.13;;;128.50;2176.00;;;;;;5056478;28;20445;-70
2021/03/18 07:26:46;;;;;;;31.73;17.77;;;128.50;2176.00;;;;;;5056192;28;20056;-70
2021/03/18 07:29:20;;;;;;;21.33;14.30;;;128.50;2201.60;;;;;;5056418;28;20056;-72
2021/03/18 07:31:49;;;;;;;31.00;17.35;;;128.50;2201.60;;;;;;5056069;28;20079;-73
2021/03/18 07:34:15;;;;;;;29.33;17.98;;;128.60;2201.60;;;;;;5056068;28;20049;-70
2021/03/18 07:36:42;;;;;;;25.35;15.98;;;128.50;2227.20;;;;;;5054350;28;20017;-74
2021/03/18 07:39:08;;;;;;;23.92;16.83;;;128.60;2201.60;;;;;;5055252;28;20025;-73
2021/03/18 07:41:35;;;;;;;26.60;16.60;;;128.60;2176.00;;;;;;5054673;28;20533;-73
2021/03/18 07:44:02;;;;;;;29.88;18.55;;;128.80;2150.40;;;;;;5054541;28;20087;-70
2021/03/18 07:46:30;;;;;;;25.95;17.98;;;128.90;2176.00;;;;;;5055708;28;20025;-73
2021/03/18 07:49:10;;;;;;;25.60;15.85;;;128.90;2176.00;;;;;;5034588;28;20052;-70
2021/03/18 07:51:38;;;;;;;28.02;17.52;;;128.90;2150.40;;;;;;5034844;28;20098;-71
2021/03/18 07:54:06;;;;;;;29.05;19.80;;;128.90;2150.40;;;;;;5032168;28;20026;-70
2021/03/18 07:56:32;;;;;;;24.50;17.15;;;153.60;2176.00;;;;;;5034448;28;20025;-71
2021/03/18 07:59:06;;;;;;;30.30;19.80;;;153.70;2150.40;;;;;;5034372;28;20080;-70
2021/03/18 08:01:32;;;;;;;33.95;23.80;;;153.70;2150.40;;;;;;5034396;28;20155;-73
2021/03/18 08:04:03;;;;;;;32.95;21.30;;;153.70;2176.00;;;;;;5035323;28;20418;-73
2021/03/18 08:06:41;;;;;;;27.52;18.88;;;153.70;2176.00;;;;;;5035544;28;20022;-70
2021/03/18 08:09:12;;;;;;;21.63;14.90;;;153.70;2176.00;;;;;;5050741;28;20355;-73
2021/03/18 08:11:40;;;;;;;21.20;13.85;;;153.70;2176.00;;;;;;5035387;28;20033;-73
2021/03/18 08:14:11;;;;;;;20.52;13.60;;;153.70;2150.40;;;;;;5050727;28;20045;-70
2021/03/18 08:16:37;;;;;;;26.35;15.60;;;153.70;2176.00;;;;;;5035549;28;20090;-72
2021/03/18 08:19:06;;;;;;;20.77;14.95;;;153.60;2176.00;;;;;;5035222;28;20040;-70
2021/03/18 08:21:39;;;;;;;22.70;15.00;;;128.90;2176.00;;;;;;5035187;28;20039;-70
2021/03/18 08:24:06;;;;;;;21.52;15.30;;;128.90;2201.60;;;;;;5036032;28;20029;-73
2021/03/18 08:26:52;;;;;;;21.27;14.10;;;153.60;2201.60;;;;;;5035043;28;20076;-71
2021/03/18 08:29:39;;;;;;;21.83;14.18;;;153.60;2201.60;;;;;;5035052;28;20036;-73
2021/03/18 08:32:24;;;;;;;28.92;17.35;;;153.70;2176.00;;;;;;5035127;28;20084;-70
2021/03/18 08:35:02;;;;;;;26.20;16.98;;;153.60;2201.60;;;;;;5034828;28;20056;-71
2021/03/18 08:37:36;;;;;;;26.77;16.00;;;153.60;2201.60;;;;;;5034890;28;20025;-70
2021/03/18 08:40:06;;;;;;;;;;;153.80;2176.00;;;;;;5035272;28;20428;-71
2021/03/18 08:42:36;;;;;;;44.60;29.38;;;153.70;2201.60;;;;;;5034858;28;19909;-70
2021/03/18 08:45:20;;;;;;;40.97;26.33;;;153.90;2176.00;;;;;;5033459;28;20390;-70
2021/03/18 08:47:49;;;;;;;28.27;20.75;;;153.80;2176.00;;;;;;5034759;28;20105;-73
2021/03/18 08:50:35;;;;;;;60.63;28.77;;;153.90;2201.60;;;;;;5034639;28;20140;-73
2021/03/18 08:53:03;;;;;;;32.30;19.33;;;153.90;2176.00;;;;;;5034498;28;20030;-73
2021/03/18 08:56:01;;;;;;;32.70;21.88;;;153.90;2176.00;;;;;;5049919;28;20022;-70
2021/03/18 08:58:27;;;;;;;39.38;27.30;;;153.90;2176.00;;;;;;5032440;28;20045;-74
2021/03/18 09:00:53;;;;;;;131.93;52.95;;;154.00;2176.00;;;;;;5032399;28;20156;-71
2021/03/18 09:03:22;;;;;;;79.22;35.22;;;154.00;2176.00;;;;;;5032385;28;20029;-73
2021/03/18 09:05:56;;;;;;;38.90;21.52;;;154.10;2150.40;;;;;;5032328;28;20513;-73
2021/03/18 09:08:27;;;;;;;25.33;17.40;;;154.10;2150.40;;;;;;5027960;28;20042;-71
2021/03/18 09:10:54;;;;;;;28.27;17.77;;;154.10;2150.40;;;;;;5032073;28;20116;-71
2021/03/18 09:13:22;;;;;;;39.97;19.58;;;154.10;2150.40;;;;;;5032154;28;20029;-70
2021/03/18 09:15:52;;;;;;;37.40;20.33;;;154.00;2150.40;;;;;;5032162;28;20033;-72
2021/03/18 09:18:24;;;;;;;39.00;23.83;;;153.90;2201.60;;;;;;5030925;28;20038;-71
2021/03/18 09:21:01;;;;;;;60.10;34.75;;;153.80;2176.00;;;;;;5031153;28;20034;-70
2021/03/18 09:23:30;;;;;;;52.55;29.08;;;153.70;2201.60;;;;;;5031105;28;20033;-72
2021/03/18 09:25:58;;;;;;;51.33;24.10;;;153.80;2201.60;;;;;;5031043;28;20497;-72
2021/03/18 09:28:25;;;;;;;64.68;29.15;;;153.70;2201.60;;;;;;5030972;28;20034;-70
2021/03/18 09:30:56;;;;;;;44.20;22.47;;;153.60;2201.60;;;;;;5030891;28;20057;-70
2021/03/18 09:33:32;;;;;;;51.30;26.87;;;128.90;2252.80;;;;;;5046292;23;20041;-72
2021/03/18 09:36:01;;;;;;;49.67;26.23;;;128.90;2252.80;;;;;;5053604;28;20469;-76
2021/03/18 09:38:30;;;;;;;49.63;28.17;;;153.60;2252.80;;;;;;5053615;28;20115;-71
2021/03/18 09:40:58;;;;;;;37.47;23.10;;;153.80;2227.20;;;;;;5053632;28;20029;-70
2021/03/18 09:43:26;;;;;;;26.23;18.63;;;153.70;2227.20;;;;;;5053624;28;20536;-76
2021/03/18 09:45:59;;;;;;;48.70;27.90;;;153.90;2201.60;;;;;;5053605;28;20037;-71
2021/03/18 09:48:38;;;;;;;30.63;20.92;;;154.00;2201.60;;;;;;5053940;28;20111;-71
2021/03/18 09:51:08;;;;;;;46.67;24.27;;;154.10;2227.20;;;;;;5053615;28;20079;-76
2021/03/18 09:53:35;;;;;;;28.65;18.98;;;154.10;2201.60;;;;;;5053735;28;20048;-71
2021/03/18 09:56:06;;;;;;;39.53;24.08;;;154.30;2201.60;;;;;;5053426;28;20040;-78
2021/03/18 09:58:32;;;;;;;30.17;20.07;;;154.30;2201.60;;;;;;5053326;28;20086;-76
2021/03/18 10:00:58;;;;;;;27.08;17.15;;;154.40;2176.00;;;;;;5053348;28;20079;-71
2021/03/18 10:03:24;;;;;;;52.28;24.92;;;154.30;2176.00;;;;;;5053350;28;20028;-76
2021/03/18 10:05:50;;;;;;;38.70;19.73;;;154.40;2201.60;;;;;;5053121;28;20099;-77
2021/03/18 10:08:22;;;;;;;44.90;23.10;;;154.40;2227.20;;;;;;5053114;28;20033;-72
2021/03/18 10:10:48;;;;;;;81.28;43.97;;;154.30;2227.20;;;;;;5053486;28;20044;-77
2021/03/18 10:13:16;;;;;;;54.47;28.08;;;154.30;2201.60;;;;;;5053168;28;20049;-76
2021/03/18 10:15:42;;;;;;;46.25;25.13;;;154.40;2176.00;;;;;;5053082;28;20025;-72
2021/03/18 10:18:08;;;;;;;25.25;17.35;;;154.50;2176.00;;;;;;5055998;28;20026;-77
2021/03/18 10:20:35;;;;;;;31.48;19.85;;;179.30;2176.00;;;;;;5057662;28;20050;-76
2021/03/18 10:23:06;;;;;;;27.65;18.40;;;179.30;2176.00;;;;;;5057185;28;20033;-76
2021/03/18 10:25:35;;;;;;;24.60;16.98;;;179.40;2150.40;;;;;;5057332;28;20021;-77
2021/03/18 10:28:09;;;;;;;31.08;18.90;;;179.60;2150.40;;;;;;5055845;28;20445;-75
2021/03/18 10:30:42;;;;;;;28.92;18.33;;;179.70;2099.20;;;;;;5057244;28;20031;-76
2021/03/18 10:33:24;;;;;;;22.83;15.33;;;179.80;2073.60;;;;;;5057195;28;20024;-77
2021/03/18 10:35:53;;;;;;;19.95;15.40;;;179.90;2022.40;;;;;;5057102;28;20037;-77
2021/03/18 10:38:35;;;;;;;28.13;19.25;;;180.00;2022.40;;;;;;5057013;28;20025;-77
2021/03/18 10:41:09;;;;;;;21.92;16.05;;;204.80;2022.40;;;;;;5056973;28;20539;-78
2021/03/18 10:43:43;;;;;;;23.08;15.65;;;204.80;1971.20;;;;;;5056846;28;20075;-78
2021/03/18 10:46:12;;;;;;;18.55;13.88;;;204.80;1971.20;;;;;;5056926;28;20070;-79
2021/03/18 10:48:39;;;;;;;39.55;22.45;;;204.90;1971.20;;;;;;5056718;28;20033;-76
2021/03/18 10:51:08;;;;;;;31.33;19.23;;;204.80;1971.20;;;;;;5055446;28;20029;-76
2021/03/18 10:53:39;;;;;;;42.35;36.25;;;204.80;1868.80;;;;;;5056855;28;20082;-78
2021/03/18 10:56:10;;;;;;;133.10;119.68;;;180.10;1894.40;;;;;;5056625;28;20035;-78
2021/03/18 10:58:37;;;;;;;51.83;41.97;;;180.10;1920.00;;;;;;5056474;28;20103;-77
2021/03/18 11:01:06;;;;;;;40.92;36.65;;;204.80;1894.40;;;;;;5056347;28;20032;-73
2021/03/18 11:03:38;;;;;;;21.80;17.55;;;204.80;1894.40;;;;;;5056418;28;20377;-77
2021/03/18 11:06:17;;;;;;;47.03;42.70;;;180.10;1894.40;;;;;;5056588;28;20037;-77
2021/03/18 11:08:45;;;;;;;73.88;67.03;;;204.80;1894.40;;;;;;5056283;28;20041;-77
2021/03/18 11:11:22;;;;;;;22.60;16.75;;;204.80;1920.00;;;;;;5066019;28;20476;-76
2021/03/18 11:13:49;;;;;;;34.53;22.60;;;180.10;1894.40;;;;;;5070276;28;20050;-77
2021/03/18 11:16:23;;;;;;;28.80;17.67;;;204.80;1894.40;;;;;;5063861;28;20390;-75
2021/03/18 11:18:55;;;;;;;27.52;19.02;;;204.80;1843.20;;;;;;5072458;28;20469;-77
2021/03/18 11:21:24;;;;;;;20.90;14.50;;;204.90;1868.80;;;;;;5062111;28;20466;-76
2021/03/18 11:23:54;;;;;;;23.65;16.58;;;204.90;1792.00;;;;;;5065856;28;20021;-75
2021/03/18 11:26:25;;;;;;;28.10;18.70;;;205.00;1817.60;;;;;;5069932;28;20115;-72
2021/03/18 11:28:53;;;;;;;25.67;15.93;;;205.20;1817.60;;;;;;5059125;28;20037;-71
2021/03/18 11:31:20;;;;;;;23.60;14.73;;;205.20;1817.60;;;;;;5070028;28;20051;-77
2021/03/18 11:33:47;;;;;;;18.85;12.38;;;205.10;1792.00;;;;;;5063767;28;20053;-72
2021/03/18 11:36:13;;;;;;;21.33;14.88;;;205.10;1792.00;;;;;;5062382;28;20036;-76
2021/03/18 11:38:40;;;;;;;29.42;17.15;;;205.00;1817.60;;;;;;5071978;28;20029;-77
2021/03/18 11:41:06;;;;;;;21.77;14.15;;;205.10;1792.00;;;;;;5059614;28;20031;-72
2021/03/18 11:43:31;;;;;;;17.25;12.02;;;205.20;1817.60;;;;;;5068034;28;20021;-77
2021/03/18 11:45:58;;;;;;;19.33;13.63;;;205.20;1792.00;;;;;;5066576;28;20421;-76
2021/03/18 11:48:24;;;;;;;82.22;34.00;;;205.20;1766.40;;;;;;5060726;28;20094;-77
2021/03/18 11:50:50;;;;;;;30.90;17.48;;;205.30;1792.00;;;;;;5058670;28;20025;-77
2021/03/18 11:53:17;;;;;;;27.80;16.00;;;205.30;1715.20;;;;;;5069904;28;20038;-71
2021/03/18 11:55:44;;;;;;;26.98;15.98;;;205.30;1740.80;;;;;;5064604;28;20122;-74
2021/03/18 11:58:09;;;;;;;31.25;17.30;;;205.30;1740.80;;;;;;5062571;28;20451;-73
2021/03/18 12:00:37;;;;;;;43.70;22.58;;;205.30;1740.80;;;;;;5071592;28;20103;-75
2021/03/18 12:03:05;;;;;;;34.03;20.70;;;205.40;1689.60;;;;;;5042363;28;20028;-72
2021/03/18 12:05:32;;;;;;;30.30;20.35;;;205.50;1689.60;;;;;;5067613;28;20017;-75
2021/03/18 12:07:57;;;;;;;52.33;24.98;;;205.70;1715.20;;;;;;5053952;28;20037;-71
2021/03/18 12:10:23;;;;;;;37.95;21.92;;;205.70;1715.20;;;;;;5049084;28;20036;-74
2021/03/18 12:12:49;;;;;;;33.13;20.30;;;205.60;1689.60;;;;;;5055736;28;20029;-75
2021/03/18 12:15:16;;;;;;;28.08;17.98;;;205.60;1689.60;;;;;;5059449;28;20381;-77